sensor_id;sensor_type;location;lat;lon;timestamp;P1;durP1;ratioP1;P2;durP2;ratioP2
45940;SDS011;31858;46.008;8.978;2023-05-23T00:02:04;8.98;;;7.05;;
45940;SDS011;31858;46.008;8.978;2023-05-23T00:12:07;11.77;;;6.30;;
45940;SDS011;31858;46.008;8.978;2023-05-23T00:22:10;7.10;;;5.95;;
45940;SDS011;31858;46.008;8.978;2023-05-23T00:32:14;14.32;;;6.35;;
45940;SDS011;31858;46.008;8.978;2023-05-23T00:42:17;6.13;;;5.53;;
45940;SDS011;31858;46.008;8.978;2023-05-23T00:52:19;8.43;;;6.63;;
45940;SDS011;31858;46.008;8.978;2023-05-23T01:02:22;6.47;;;5.88;;
45940;SDS011;31858;46.008;8.978;2023-05-23T01:12:24;8.80;;;5.90;;
45940;SDS011;31858;46.008;8.978;2023-05-23T01:22:46;9.88;;;5.00;;
45940;SDS011;31858;46.008;8.978;2023-05-23T01:33:05;6.13;;;5.55;;
45940;SDS011;31858;46.008;8.978;2023-05-23T01:43:08;5.35;;;4.70;;
45940;SDS011;31858;46.008;8.978;2023-05-23T01:53:13;13.45;;;6.32;;
45940;SDS011;31858;46.008;8.978;2023-05-23T02:03:17;12.27;;;5.60;;
45940;SDS011;31858;46.008;8.978;2023-05-23T02:13:21;12.63;;;6.53;;
45940;SDS011;31858;46.008;8.978;2023-05-23T02:23:22;10.50;;;6.80;;
45940;SDS011;31858;46.008;8.978;2023-05-23T02:33:25;9.85;;;5.80;;
45940;SDS011;31858;46.008;8.978;2023-05-23T02:43:27;7.00;;;6.15;;
45940;SDS011;31858;46.008;8.978;2023-05-23T02:53:30;6.82;;;6.13;;
45940;SDS011;31858;46.008;8.978;2023-05-23T03:03:31;8.50;;;6.28;;
45940;SDS011;31858;46.008;8.978;2023-05-23T03:13:34;6.60;;;5.45;;
45940;SDS011;31858;46.008;8.978;2023-05-23T03:23:36;6.80;;;5.40;;
45940;SDS011;31858;46.008;8.978;2023-05-23T03:33:39;7.32;;;5.22;;
45940;SDS011;31858;46.008;8.978;2023-05-23T03:43:40;7.22;;;5.95;;
45940;SDS011;31858;46.008;8.978;2023-05-23T03:53:43;9.18;;;6.10;;
45940;SDS011;31858;46.008;8.978;2023-05-23T04:03:45;7.35;;;5.60;;
45940;SDS011;31858;46.008;8.978;2023-05-23T04:13:48;8.68;;;7.18;;
45940;SDS011;31858;46.008;8.978;2023-05-23T04:23:51;8.93;;;6.72;;
45940;SDS011;31858;46.008;8.978;2023-05-23T04:33:54;9.45;;;5.80;;
45940;SDS011;31858;46.008;8.978;2023-05-23T04:43:56;9.13;;;6.28;;
45940;SDS011;31858;46.008;8.978;2023-05-23T04:53:59;6.97;;;6.07;;
45940;SDS011;31858;46.008;8.978;2023-05-23T05:04:01;14.05;;;5.82;;
45940;SDS011;31858;46.008;8.978;2023-05-23T05:14:04;13.20;;;6.53;;
45940;SDS011;31858;46.008;8.978;2023-05-23T05:24:06;10.13;;;6.32;;
45940;SDS011;31858;46.008;8.978;2023-05-23T05:34:10;6.88;;;6.22;;
45940;SDS011;31858;46.008;8.978;2023-05-23T05:44:12;8.82;;;6.25;;
45940;SDS011;31858;46.008;8.978;2023-05-23T05:54:15;8.15;;;6.80;;
45940;SDS011;31858;46.008;8.978;2023-05-23T06:04:16;7.13;;;6.43;;
45940;SDS011;31858;46.008;8.978;2023-05-23T06:14:20;7.65;;;6.82;;
45940;SDS011;31858;46.008;8.978;2023-05-23T06:24:21;10.70;;;6.57;;
45940;SDS011;31858;46.008;8.978;2023-05-23T06:34:24;8.35;;;6.95;;
45940;SDS011;31858;46.008;8.978;2023-05-23T06:44:26;7.68;;;5.75;;
45940;SDS011;31858;46.008;8.978;2023-05-23T06:54:29;9.23;;;5.68;;
45940;SDS011;31858;46.008;8.978;2023-05-23T07:04:30;11.15;;;6.05;;
45940;SDS011;31858;46.008;8.978;2023-05-23T07:14:33;12.70;;;6.13;;
45940;SDS011;31858;46.008;8.978;2023-05-23T07:24:38;12.40;;;7.50;;
45940;SDS011;31858;46.008;8.978;2023-05-23T07:34:41;7.13;;;6.43;;
45940;SDS011;31858;46.008;8.978;2023-05-23T07:44:42;8.15;;;6.80;;
45940;SDS011;31858;46.008;8.978;2023-05-23T07:54:45;11.60;;;7.63;;
45940;SDS011;31858;46.008;8.978;2023-05-23T08:04:47;7.07;;;6.03;;
45940;SDS011;31858;46.008;8.978;2023-05-23T08:14:50;10.93;;;6.18;;
45940;SDS011;31858;46.008;8.978;2023-05-23T08:24:52;6.15;;;5.55;;
45940;SDS011;31858;46.008;8.978;2023-05-23T08:34:55;6.03;;;5.13;;
45940;SDS011;31858;46.008;8.978;2023-05-23T08:44:56;8.55;;;5.63;;
45940;SDS011;31858;46.008;8.978;2023-05-23T08:55:00;6.88;;;5.80;;
45940;SDS011;31858;46.008;8.978;2023-05-23T09:05:03;7.47;;;5.88;;
45940;SDS011;31858;46.008;8.978;2023-05-23T09:15:06;6.75;;;5.90;;
45940;SDS011;31858;46.008;8.978;2023-05-23T09:25:09;9.48;;;6.00;;
45940;SDS011;31858;46.008;8.978;2023-05-23T09:35:12;6.95;;;5.35;;
45940;SDS011;31858;46.008;8.978;2023-05-23T09:45:15;10.40;;;5.00;;
45940;SDS011;31858;46.008;8.978;2023-05-23T09:55:18;7.55;;;4.95;;
45940;SDS011;31858;46.008;8.978;2023-05-23T10:05:27;6.80;;;5.60;;
45940;SDS011;31858;46.008;8.978;2023-05-23T10:15:36;9.65;;;5.68;;
45940;SDS011;31858;46.008;8.978;2023-05-23T10:25:39;7.75;;;5.72;;
45940;SDS011;31858;46.008;8.978;2023-05-23T10:35:47;7.00;;;4.90;;
45940;SDS011;31858;46.008;8.978;2023-05-23T10:45:54;6.90;;;5.10;;
45940;SDS011;31858;46.008;8.978;2023-05-23T10:55:57;5.90;;;5.30;;
45940;SDS011;31858;46.008;8.978;2023-05-23T11:05:59;7.22;;;5.47;;
45940;SDS011;31858;46.008;8.978;2023-05-23T11:16:15;9.50;;;6.18;;
45940;SDS011;31858;46.008;8.978;2023-05-23T11:26:30;7.20;;;5.20;;
45940;SDS011;31858;46.008;8.978;2023-05-23T11:36:33;7.00;;;4.93;;
45940;SDS011;31858;46.008;8.978;2023-05-23T11:46:37;10.45;;;5.35;;
45940;SDS011;31858;46.008;8.978;2023-05-23T11:56:40;6.10;;;5.10;;
45940;SDS011;31858;46.008;8.978;2023-05-23T12:06:44;11.45;;;5.30;;
45940;SDS011;31858;46.008;8.978;2023-05-23T12:16:48;7.13;;;5.03;;
45940;SDS011;31858;46.008;8.978;2023-05-23T12:26:53;5.55;;;4.47;;
45940;SDS011;31858;46.008;8.978;2023-05-23T12:36:58;8.60;;;4.70;;
45940;SDS011;31858;46.008;8.978;2023-05-23T12:47:02;5.85;;;4.80;;
45940;SDS011;31858;46.008;8.978;2023-05-23T12:57:05;8.18;;;4.25;;
45940;SDS011;31858;46.008;8.978;2023-05-23T13:07:07;4.63;;;4.00;;
45940;SDS011;31858;46.008;8.978;2023-05-23T13:17:10;5.47;;;4.50;;
45940;SDS011;31858;46.008;8.978;2023-05-23T13:27:11;5.40;;;4.05;;
45940;SDS011;31858;46.008;8.978;2023-05-23T13:37:15;4.88;;;4.10;;
45940;SDS011;31858;46.008;8.978;2023-05-23T13:47:16;5.80;;;4.70;;
45940;SDS011;31858;46.008;8.978;2023-05-23T13:57:19;8.10;;;4.43;;
45940;SDS011;31858;46.008;8.978;2023-05-23T14:07:21;8.95;;;4.90;;
45940;SDS011;31858;46.008;8.978;2023-05-23T14:17:24;6.22;;;4.40;;
45940;SDS011;31858;46.008;8.978;2023-05-23T14:27:25;7.75;;;5.32;;
45940;SDS011;31858;46.008;8.978;2023-05-23T14:37:28;9.32;;;5.10;;
45940;SDS011;31858;46.008;8.978;2023-05-23T14:47:30;9.40;;;5.38;;
45940;SDS011;31858;46.008;8.978;2023-05-23T14:57:33;6.28;;;5.68;;
45940;SDS011;31858;46.008;8.978;2023-05-23T15:07:35;10.45;;;5.75;;
45940;SDS011;31858;46.008;8.978;2023-05-23T15:17:39;6.75;;;5.57;;
45940;SDS011;31858;46.008;8.978;2023-05-23T15:27:40;15.90;;;6.95;;
45940;SDS011;31858;46.008;8.978;2023-05-23T15:37:45;7.60;;;5.53;;
45940;SDS011;31858;46.008;8.978;2023-05-23T15:47:46;7.57;;;3.85;;
45940;SDS011;31858;46.008;8.978;2023-05-23T15:57:49;11.10;;;4.65;;
45940;SDS011;31858;46.008;8.978;2023-05-23T16:07:51;5.32;;;4.63;;
45940;SDS011;31858;46.008;8.978;2023-05-23T16:17:54;6.80;;;5.78;;
45940;SDS011;31858;46.008;8.978;2023-05-23T16:27:55;9.95;;;6.03;;
45940;SDS011;31858;46.008;8.978;2023-05-23T16:37:58;7.53;;;6.22;;
45940;SDS011;31858;46.008;8.978;2023-05-23T16:48:00;9.38;;;6.22;;
45940;SDS011;31858;46.008;8.978;2023-05-23T16:58:03;6.45;;;5.78;;
45940;SDS011;31858;46.008;8.978;2023-05-23T17:08:04;5.60;;;5.10;;
45940;SDS011;31858;46.008;8.978;2023-05-23T17:18:08;5.70;;;5.20;;
45940;SDS011;31858;46.008;8.978;2023-05-23T17:28:09;14.90;;;5.50;;
45940;SDS011;31858;46.008;8.978;2023-05-23T17:38:12;8.25;;;4.93;;
45940;SDS011;31858;46.008;8.978;2023-05-23T17:48:14;8.25;;;4.55;;
45940;SDS011;31858;46.008;8.978;2023-05-23T17:58:18;4.28;;;3.88;;
45940;SDS011;31858;46.008;8.978;2023-05-23T18:08:20;5.22;;;4.45;;
45940;SDS011;31858;46.008;8.978;2023-05-23T18:18:23;7.15;;;4.68;;
45940;SDS011;31858;46.008;8.978;2023-05-23T18:28:25;6.97;;;5.13;;
45940;SDS011;31858;46.008;8.978;2023-05-23T18:38:28;8.68;;;5.20;;
45940;SDS011;31858;46.008;8.978;2023-05-23T18:48:29;5.47;;;3.67;;
45940;SDS011;31858;46.008;8.978;2023-05-23T18:58:32;2.88;;;2.28;;
45940;SDS011;31858;46.008;8.978;2023-05-23T19:08:34;6.80;;;2.15;;
45940;SDS011;31858;46.008;8.978;2023-05-23T19:18:37;4.43;;;2.75;;
45940;SDS011;31858;46.008;8.978;2023-05-23T19:28:39;6.13;;;3.20;;
45940;SDS011;31858;46.008;8.978;2023-05-23T19:38:42;4.38;;;2.92;;
45940;SDS011;31858;46.008;8.978;2023-05-23T19:48:44;5.35;;;2.80;;
45940;SDS011;31858;46.008;8.978;2023-05-23T19:58:47;4.88;;;3.10;;
45940;SDS011;31858;46.008;8.978;2023-05-23T20:08:48;3.17;;;2.80;;
45940;SDS011;31858;46.008;8.978;2023-05-23T20:18:51;5.57;;;3.20;;
45940;SDS011;31858;46.008;8.978;2023-05-23T20:28:53;5.47;;;3.08;;
45940;SDS011;31858;46.008;8.978;2023-05-23T20:38:56;3.85;;;3.45;;
45940;SDS011;31858;46.008;8.978;2023-05-23T20:48:58;6.30;;;3.63;;
45940;SDS011;31858;46.008;8.978;2023-05-23T20:59:01;4.30;;;2.90;;
45940;SDS011;31858;46.008;8.978;2023-05-23T21:09:03;7.32;;;3.80;;
45940;SDS011;31858;46.008;8.978;2023-05-23T21:19:06;5.25;;;3.60;;
45940;SDS011;31858;46.008;8.978;2023-05-23T21:29:08;5.25;;;4.00;;
45940;SDS011;31858;46.008;8.978;2023-05-23T21:39:10;5.85;;;3.55;;
45940;SDS011;31858;46.008;8.978;2023-05-23T21:49:12;8.70;;;3.35;;
45940;SDS011;31858;46.008;8.978;2023-05-23T21:59:16;5.50;;;3.33;;
45940;SDS011;31858;46.008;8.978;2023-05-23T22:09:18;6.00;;;3.42;;
45940;SDS011;31858;46.008;8.978;2023-05-23T22:19:21;5.97;;;3.50;;
45940;SDS011;31858;46.008;8.978;2023-05-23T22:29:25;7.35;;;3.47;;
45940;SDS011;31858;46.008;8.978;2023-05-23T22:39:28;4.40;;;3.22;;
45940;SDS011;31858;46.008;8.978;2023-05-23T22:49:30;3.35;;;2.97;;
45940;SDS011;31858;46.008;8.978;2023-05-23T22:59:33;8.30;;;3.20;;
45940;SDS011;31858;46.008;8.978;2023-05-23T23:09:34;4.85;;;3.60;;
45940;SDS011;31858;46.008;8.978;2023-05-23T23:19:37;3.85;;;3.45;;
45940;SDS011;31858;46.008;8.978;2023-05-23T23:29:40;8.00;;;3.65;;
45940;SDS011;31858;46.008;8.978;2023-05-23T23:39:43;5.38;;;3.65;;
45940;SDS011;31858;46.008;8.978;2023-05-23T23:49:44;4.13;;;3.58;;
45940;SDS011;31858;46.008;8.978;2023-05-23T23:59:47;6.40;;;3.25;;
